Time;durP1;ratioP1;P1;durP2;ratioP2;P2;SDS_P1;SDS_P2;PMS_P1;PMS_P2;Temp;Humidity;BMP_temperature;BMP_pressure;BME280_temperature;BME280_humidity;BME280_pressure;Samples;Min_cycle;Max_cycle;Signal;HPM_P1;HPM_P2
2022/05/24 05:22:08;;;;;;;24.35;5.03;;;;;;;22.83;50.50;99490.58;2426532;72;24607;-74
2022/05/24 05:25:10;;;;;;;26.82;5.30;;;;;;;22.83;50.64;99508.11;2374019;75;50429;-74
2022/05/24 05:28:12;;;;;;;15.70;4.45;;;;;;;22.86;50.35;99498.72;2349052;75;50224;-72
2022/05/24 05:31:17;;;;;;;19.70;4.12;;;;;;;22.91;50.25;99510.96;2312166;75;50194;-75
2022/05/24 05:34:19;;;;;;;21.57;4.33;;;;;;;22.96;50.12;99522.39;2283286;76;50730;-74
2022/05/24 05:37:21;;;;;;;16.77;4.72;;;;;;;23.02;50.19;99530.92;2272230;77;50562;-73
2022/05/24 05:40:23;;;;;;;11.93;3.90;;;;;;;23.07;50.12;99534.23;2311838;76;51381;-74
2022/05/24 05:43:25;;;;;;;19.37;4.05;;;;;;;23.13;49.88;99541.38;2311015;76;51360;-73
2022/05/24 05:46:28;;;;;;;17.45;4.85;;;;;;;23.17;49.71;99546.57;2323950;76;51334;-74
2022/05/24 05:49:30;;;;;;;43.85;6.33;;;;;;;23.21;49.47;99556.66;2328232;76;51376;-78
2022/05/24 05:52:33;;;;;;;32.73;5.12;;;;;;;23.25;49.84;99552.96;2299966;76;51410;-74
2022/05/24 05:55:37;;;;;;;26.77;4.92;;;;;;;23.30;49.74;99550.36;2299776;76;51472;-73
2022/05/24 05:58:39;;;;;;;28.17;5.62;;;;;;;23.31;49.71;99552.52;2297673;76;51438;-73
2022/05/24 06:01:42;;;;;;;25.65;4.80;;;;;;;23.35;49.48;99556.36;2294877;77;50590;-73
2022/05/24 06:04:45;;;;;;;23.20;4.67;;;;;;;23.37;49.44;99560.99;2296824;76;52304;-73
2022/05/24 06:07:47;;;;;;;30.20;5.42;;;;;;;23.37;49.49;99570.44;2280708;76;50140;-73
2022/05/24 06:10:50;;;;;;;31.65;4.75;;;;;;;23.37;49.49;99573.95;2311167;75;50198;-73
2022/05/24 06:13:53;;;;;;;26.65;5.08;;;;;;;23.38;49.47;99570.21;2312133;76;51328;-73
2022/05/24 06:16:55;;;;;;;28.05;5.37;;;;;;;23.43;49.21;99564.09;2311074;76;51394;-73
2022/05/24 06:20:01;;;;;;;23.30;4.83;;;;;;;23.45;49.17;99579.50;2312092;75;50457;-73
2022/05/24 06:23:03;;;;;;;19.50;4.70;;;;;;;23.45;49.12;99582.20;2280647;76;51465;-73
2022/05/24 06:26:05;;;;;;;16.85;4.30;;;;;;;23.47;49.10;99588.19;2293903;76;53901;-75
2022/05/24 06:29:07;;;;;;;22.07;4.75;;;;;;;23.51;49.02;99592.05;2314467;75;50166;-73
2022/05/24 06:32:09;;;;;;;19.00;3.95;;;;;;;23.49;49.02;99595.52;2250324;76;51028;-73
2022/05/24 06:35:12;;;;;;;26.33;4.55;;;;;;;23.51;49.00;99610.95;2302567;75;50563;-74
2022/05/24 06:38:14;;;;;;;17.82;4.22;;;;;;;23.48;49.06;99602.80;2305718;75;51256;-73
2022/05/24 06:41:17;;;;;;;18.27;3.77;;;;;;;23.47;49.03;99606.55;2284285;76;49900;-73
2022/05/24 06:44:19;;;;;;;16.50;4.37;;;;;;;23.47;49.01;99615.18;2311717;76;50623;-73
2022/05/24 06:47:21;;;;;;;20.00;4.33;;;;;;;23.47;49.00;99619.23;2276180;76;52504;-73
2022/05/24 06:50:24;;;;;;;22.02;4.30;;;;;;;23.44;49.08;99635.38;2260772;76;51333;-73
2022/05/24 06:53:26;;;;;;;13.70;3.80;;;;;;;23.45;49.00;99628.09;2283628;76;50178;-74
2022/05/24 06:56:29;;;;;;;14.50;3.80;;;;;;;23.46;49.01;99636.50;2245853;76;51178;-74
2022/05/24 07:03:04;;;;;;;12.00;3.33;;;;;;;23.47;48.95;99636.78;2310653;76;22405;-74
2022/05/24 07:06:06;;;;;;;9.55;3.20;;;;;;;23.45;48.95;99642.95;2318236;76;51511;-74
2022/05/24 07:09:08;;;;;;;8.38;3.05;;;;;;;23.44;48.96;99642.66;2306073;76;50654;-74
2022/05/24 07:12:10;;;;;;;9.58;3.58;;;;;;;23.43;48.95;99651.30;2279313;76;50908;-74
2022/05/24 07:15:13;;;;;;;12.07;3.52;;;;;;;23.45;48.96;99660.49;2306336;76;51433;-74
2022/05/24 07:18:15;;;;;;;9.73;3.08;;;;;;;23.50;48.86;99657.89;2301876;76;51451;-75
2022/05/24 07:21:18;;;;;;;11.90;3.50;;;;;;;23.51;48.83;99670.89;2260730;76;49987;-74
2022/05/24 07:24:20;;;;;;;11.25;3.02;;;;;;;23.55;48.76;99668.80;2297371;76;50178;-75
2022/05/24 07:27:22;;;;;;;10.80;3.22;;;;;;;23.55;48.78;99676.08;2296998;76;50293;-75
2022/05/24 07:30:25;;;;;;;5.90;2.72;;;;;;;23.53;48.78;99672.80;2285619;76;51427;-75
2022/05/24 07:33:27;;;;;;;7.78;2.72;;;;;;;23.54;48.76;99675.27;2285695;76;51489;-75
2022/05/24 07:36:29;;;;;;;8.08;2.60;;;;;;;23.58;48.68;99678.30;2299773;76;50971;-74
2022/05/24 07:39:31;;;;;;;7.22;2.33;;;;;;;23.68;48.54;99687.95;2296890;76;51410;-76
2022/05/24 07:45:57;;;;;;;5.97;2.52;;;;;;;23.61;48.53;99687.27;2293142;76;22432;-74
2022/05/24 07:48:59;;;;;;;4.47;2.70;;;;;;;23.57;48.60;99696.92;2319342;75;51479;-74
2022/05/24 07:52:01;;;;;;;3.87;2.40;;;;;;;23.54;48.46;99699.57;2333402;75;50261;-74
2022/05/24 07:55:04;;;;;;;4.17;2.27;;;;;;;23.55;48.21;99699.85;2311197;76;50305;-74
2022/05/24 07:58:06;;;;;;;4.83;2.30;;;;;;;23.57;48.19;99696.92;2337480;75;51461;-74
2022/05/24 08:01:10;;;;;;;3.37;2.12;;;;;;;23.58;48.00;99703.45;2285449;76;50043;-73
2022/05/24 08:04:12;;;;;;;2.35;2.10;;;;;;;23.53;47.93;99708.74;2311673;76;51453;-74
2022/05/24 08:07:14;;;;;;;4.60;2.40;;;;;;;23.50;48.06;99705.14;2311263;76;50287;-73
2022/05/24 08:10:17;;;;;;;4.28;2.20;;;;;;;23.50;48.00;99713.25;2310970;76;51210;-73
2022/05/24 08:13:19;;;;;;;3.85;1.95;;;;;;;23.48;47.97;99720.25;2333270;75;51555;-74
2022/05/24 08:16:21;;;;;;;2.42;2.12;;;;;;;23.52;47.90;99721.94;2330918;75;50031;-75
2022/05/24 08:19:24;;;;;;;4.65;2.37;;;;;;;23.52;47.90;99730.03;2304398;76;51532;-74
2022/05/24 08:22:26;;;;;;;2.62;2.20;;;;;;;23.50;47.90;99725.40;2335787;75;51448;-75
2022/05/24 08:25:30;;;;;;;3.27;2.20;;;;;;;23.50;47.82;99724.58;2307934;76;51181;-75
2022/05/24 08:28:33;;;;;;;4.10;2.50;;;;;;;23.48;47.79;99724.84;2329982;76;50217;-74
2022/05/24 08:31:35;;;;;;;3.08;2.20;;;;;;;23.46;47.82;99740.45;2308309;76;50364;-73
2022/05/24 08:34:38;;;;;;;4.97;2.47;;;;;;;23.43;47.80;99741.75;2307909;76;49438;-73
2022/05/24 08:37:41;;;;;;;3.85;2.30;;;;;;;23.43;47.74;99749.03;2334582;75;50625;-73
2022/05/24 08:40:44;;;;;;;2.62;2.42;;;;;;;23.41;47.75;99747.09;2329840;76;51369;-74
2022/05/24 08:50:56;;;;;;;2.95;1.90;;;;;;;23.41;47.45;99775.44;2327332;76;22296;-75
2022/05/24 08:53:58;;;;;;;;;;;;;;;23.39;47.41;99772.14;2329596;76;52771;-75
2022/05/24 08:57:04;;;;;;;3.35;1.80;;;;;;;23.38;47.32;99780.78;2327323;76;51454;-75
2022/05/24 09:00:10;;;;;;;2.80;2.27;;;;;;;23.36;47.25;99782.89;2327112;76;51355;-74
2022/05/24 09:03:12;;;;;;;4.65;1.85;;;;;;;23.37;47.21;99768.86;2296782;76;21736;-74
2022/05/24 09:06:29;;;;;;;1.90;1.70;;;;;;;23.38;47.12;99769.98;2327484;76;50271;-74
2022/05/24 09:09:58;;;;;;;2.00;1.70;;;;;;;23.38;47.07;99778.61;2288865;76;52446;-74
2022/05/24 09:13:23;;;;;;;3.35;1.95;;;;;;;23.41;46.92;99776.25;2327294;76;51434;-73
2022/05/24 09:16:34;;;;;;;4.40;1.90;;;;;;;23.41;46.97;99778.13;2326975;76;50203;-75
2022/05/24 09:19:36;;;;;;;3.42;1.90;;;;;;;23.47;46.77;99783.39;2316884;75;51383;-75
2022/05/24 09:22:38;;;;;;;4.35;1.85;;;;;;;23.46;46.68;99775.55;2307913;76;50694;-75
2022/05/24 09:25:58;;;;;;;2.17;1.55;;;;;;;23.46;46.63;99791.21;2308029;76;52927;-75
2022/05/24 09:29:13;;;;;;;2.35;1.62;;;;;;;23.44;46.57;99778.47;2330002;75;50625;-75
2022/05/24 09:32:15;;;;;;;2.25;1.72;;;;;;;23.46;46.51;99797.96;2330276;76;50597;-75
2022/05/24 09:35:26;;;;;;;2.95;1.70;;;;;;;23.45;46.40;99798.19;2282791;76;52586;-75
2022/05/24 09:38:26;;;;;;;1.77;1.62;;;;;;;23.44;46.41;99800.61;2328525;76;22898;-74
2022/05/24 09:41:28;;;;;;;1.85;1.62;;;;;;;23.44;46.28;99800.61;2308480;76;51964;-75
2022/05/24 09:44:52;;;;;;;1.92;1.60;;;;;;;23.44;46.16;99796.02;2308367;76;51430;-74
2022/05/24 09:47:58;;;;;;;1.95;1.60;;;;;;;23.44;46.02;99786.58;2301044;76;50692;-75
2022/05/24 09:51:01;;;;;;;1.80;1.57;;;;;;;23.43;46.09;99780.08;2269883;77;49788;-75
2022/05/24 09:54:06;;;;;;;2.70;1.60;;;;;;;23.42;46.02;99779.77;2290823;77;51512;-75
2022/05/24 09:57:10;;;;;;;1.60;1.50;;;;;;;23.40;46.04;99781.38;2269852;77;51396;-74
2022/05/24 10:00:23;;;;;;;1.40;1.30;;;;;;;23.40;45.95;99776.47;2268321;77;51262;-75
2022/05/24 10:03:33;;;;;;;1.98;1.70;;;;;;;23.39;45.95;99774.84;2291189;76;23084;-74
2022/05/24 10:06:35;;;;;;;1.32;1.22;;;;;;;23.39;45.92;99786.99;2271066;77;51460;-74
2022/05/24 10:09:46;;;;;;;2.05;1.50;;;;;;;23.38;45.84;99796.16;2290726;77;50371;-75
2022/05/24 10:13:07;;;;;;;1.40;1.30;;;;;;;23.40;45.65;99795.37;2291059;77;51467;-74
2022/05/24 10:16:15;;;;;;;2.27;1.40;;;;;;;23.40;45.62;99807.52;2277509;76;51806;-74
2022/05/24 10:19:38;;;;;;;2.25;1.10;;;;;;;23.38;45.52;99790.23;2307885;76;51472;-74
2022/05/24 10:23:01;;;;;;;2.65;1.42;;;;;;;23.38;45.42;99788.06;2283980;77;50279;-74
2022/05/24 10:26:09;;;;;;;1.42;1.32;;;;;;;23.39;45.30;99786.99;2233846;77;52541;-75
2022/05/24 10:29:19;;;;;;;1.62;1.07;;;;;;;23.36;45.23;99773.44;2302133;77;52603;-75
2022/05/24 10:39:48;;;;;;;1.25;1.15;;;;;;;23.34;45.11;99775.55;2297713;76;21792;-73
2022/05/24 10:42:53;;;;;;;1.85;1.30;;;;;;;23.36;44.99;99778.84;2301810;76;51826;-74
2022/05/24 10:46:01;;;;;;;;;;;;;;;23.35;44.84;99784.46;2310509;76;50345;-75
2022/05/24 10:49:32;;;;;;;2.47;1.35;;;;;;;23.35;44.77;99785.30;2313121;76;22647;-75
2022/05/24 10:52:50;;;;;;;7.33;1.72;;;;;;;23.37;44.65;99786.40;2320348;76;50926;-75
2022/05/24 10:56:19;;;;;;;8.05;1.70;;;;;;;23.39;44.77;99786.99;2341601;76;50802;-74
2022/05/24 10:59:36;;;;;;;7.47;1.57;;;;;;;23.43;44.65;99784.12;2293695;76;50762;-74
2022/05/24 11:02:50;;;;;;;3.20;1.25;;;;;;;23.41;44.81;99787.05;2249185;78;51315;-75
2022/05/24 11:06:24;;;;;;;5.60;1.30;;;;;;;23.48;44.53;99772.09;2262849;78;50348;-76
2022/05/24 11:09:28;;;;;;;3.17;1.45;;;;;;;23.44;44.68;99778.47;2278905;76;50707;-75
2022/05/24 11:12:31;;;;;;;8.30;1.90;;;;;;;23.45;44.74;99777.94;2254173;78;50229;-75
2022/05/24 11:15:36;;;;;;;7.35;1.95;;;;;;;23.43;44.74;99771.98;2257654;78;51533;-73
2022/05/24 11:18:40;;;;;;;10.35;1.98;;;;;;;23.44;44.57;99774.95;2237062;78;51364;-73
2022/05/24 11:21:54;;;;;;;7.70;1.90;;;;;;;23.46;44.35;99780.41;2235951;78;50227;-74
2022/05/24 11:25:19;;;;;;;7.53;1.72;;;;;;;23.52;44.26;99781.34;2274138;78;50355;-74
2022/05/24 11:28:25;;;;;;;10.70;2.17;;;;;;;23.46;44.30;99778.25;2251005;78;51058;-73
2022/05/24 11:31:37;;;;;;;6.35;1.40;;;;;;;23.50;44.21;99782.09;2317216;76;51466;-73
2022/05/24 11:34:42;;;;;;;6.10;1.70;;;;;;;23.45;44.33;99795.48;2332980;75;50347;-73
2022/05/24 11:37:44;;;;;;;;;;;;;;;23.45;44.30;99796.84;2314663;76;50255;-73
2022/05/24 11:41:01;;;;;;;9.33;1.70;;;;;;;23.45;44.30;99796.84;2335754;74;51518;-74
2022/05/24 11:44:05;;;;;;;9.30;1.90;;;;;;;23.42;44.47;99802.18;2323000;76;22763;-74
2022/05/24 11:47:07;;;;;;;6.08;1.90;;;;;;;23.44;44.46;99800.61;2334066;74;50819;-73
2022/05/24 11:50:13;;;;;;;10.13;1.87;;;;;;;23.47;44.37;99806.88;2306741;76;50679;-74
2022/05/24 11:53:33;;;;;;;;;;;;;;;23.48;44.33;99816.11;2268508;77;50079;-74
2022/05/24 11:56:35;;;;;;;8.35;2.08;;;;;;;23.46;44.50;99806.06;2310873;76;50394;-74
2022/05/24 11:59:49;;;;;;;6.47;1.80;;;;;;;23.50;44.35;99813.69;2319877;76;50223;-74
2022/05/24 12:09:26;;;;;;;10.15;2.15;;;;;;;23.53;44.50;99815.41;2263520;78;22432;-75
2022/05/24 12:12:46;;;;;;;7.83;2.20;;;;;;;23.53;44.53;99824.01;2277918;76;49653;-75
2022/05/24 12:15:49;;;;;;;6.28;2.00;;;;;;;23.57;44.35;99822.49;2315449;76;50250;-75
2022/05/24 12:18:57;;;;;;;3.77;1.47;;;;;;;23.55;44.30;99824.06;2316906;76;50614;-75
2022/05/24 12:22:01;;;;;;;5.15;1.80;;;;;;;23.52;44.33;99822.38;2312521;76;50432;-79
2022/05/24 12:25:07;;;;;;;4.72;2.00;;;;;;;23.55;44.31;99821.91;2319838;75;50131;-75
2022/05/24 12:28:10;;;;;;;10.55;2.67;;;;;;;23.52;44.29;99827.24;2310908;74;50936;-75
2022/05/24 12:31:21;;;;;;;5.70;1.98;;;;;;;23.50;44.37;99819.91;2307649;76;51522;-76
2022/05/24 12:34:25;;;;;;;6.75;1.90;;;;;;;23.52;44.43;99827.78;2299918;76;51423;-75
2022/05/24 12:37:29;;;;;;;3.83;1.77;;;;;;;23.45;44.42;99831.94;2328812;76;51324;-73
2022/05/24 12:40:32;;;;;;;4.27;1.70;;;;;;;23.42;44.46;99830.53;2333217;75;50719;-75
2022/05/24 12:43:35;;;;;;;8.03;1.80;;;;;;;23.28;44.38;99814.29;2333321;75;50325;-73
2022/05/24 12:46:37;;;;;;;9.60;1.95;;;;;;;23.40;44.44;99838.56;2333347;76;51495;-74
2022/05/24 12:49:55;;;;;;;7.33;1.95;;;;;;;23.40;44.49;99844.81;2306957;76;51558;-75
2022/05/24 12:53:03;;;;;;;9.10;2.10;;;;;;;23.41;44.40;99841.05;2298264;76;50701;-74
2022/05/24 12:56:08;;;;;;;4.35;1.87;;;;;;;23.42;44.38;99831.06;2293825;77;50408;-74
2022/05/24 12:59:12;;;;;;;3.58;2.00;;;;;;;23.43;44.38;99830.02;2293660;77;51457;-73
2022/05/24 13:02:33;;;;;;;3.77;1.57;;;;;;;23.50;44.34;99832.59;2272652;77;49837;-76
2022/05/24 13:05:39;;;;;;;5.12;2.02;;;;;;;23.53;44.34;99826.70;2293944;76;50252;-73
2022/05/24 13:08:41;;;;;;;3.52;1.75;;;;;;;23.53;44.41;99837.52;2293619;76;51565;-73
2022/05/24 13:11:45;;;;;;;2.62;1.87;;;;;;;23.50;44.47;99837.45;2298400;77;50651;-73
2022/05/24 13:14:58;;;;;;;2.85;1.50;;;;;;;23.52;44.49;99848.03;2293998;77;51533;-73
2022/05/24 13:18:06;;;;;;;4.53;1.60;;;;;;;23.46;44.63;99834.41;2279978;76;50080;-74
2022/05/24 13:21:06;;;;;;;3.02;1.72;;;;;;;23.46;44.65;99833.59;2282467;77;22741;-73
2022/05/24 13:24:11;;;;;;;3.90;1.77;;;;;;;23.45;44.75;99835.98;2287936;76;51578;-73
2022/05/24 13:27:13;;;;;;;3.05;1.65;;;;;;;23.43;44.79;99838.12;2280051;76;51455;-74
2022/05/24 13:33:38;;;;;;;3.80;1.60;;;;;;;23.42;44.78;99834.58;2280396;77;22268;-73
2022/05/24 13:36:42;;;;;;;;;;;;;;;23.41;44.86;99838.88;2282732;76;50423;-73
2022/05/24 13:39:48;;;;;;;3.08;1.67;;;;;;;23.41;44.89;99842.93;2266705;77;50349;-73
2022/05/24 13:42:55;;;;;;;2.92;1.80;;;;;;;23.41;44.90;99852.38;2280143;76;51475;-74
2022/05/24 13:46:08;;;;;;;3.30;1.50;;;;;;;23.40;44.92;99853.41;2293852;76;51868;-73
2022/05/24 13:49:11;;;;;;;2.35;1.60;;;;;;;23.39;44.97;99863.40;2302284;76;51495;-74
2022/05/24 13:52:30;;;;;;;1.65;1.50;;;;;;;23.39;45.01;99863.94;2273768;77;52476;-74
2022/05/24 13:55:35;;;;;;;1.35;1.20;;;;;;;23.38;45.02;99866.35;2267739;76;50607;-73
2022/05/24 13:58:39;;;;;;;4.00;1.32;;;;;;;23.37;45.02;99852.54;2278978;77;51420;-74
2022/05/24 14:01:42;;;;;;;4.33;1.47;;;;;;;23.38;45.03;99861.77;2267893;78;50971;-74
2022/05/24 14:04:44;;;;;;;2.40;1.47;;;;;;;23.37;45.05;99861.45;2280098;78;50449;-73
2022/05/24 14:07:46;;;;;;;3.35;1.40;;;;;;;23.36;45.11;99864.41;2280093;78;50308;-74
2022/05/24 14:10:48;;;;;;;5.40;1.50;;;;;;;23.36;45.10;99867.11;2266752;77;50251;-74
2022/05/24 14:13:51;;;;;;;4.22;1.47;;;;;;;23.36;45.10;99895.45;2267900;78;50826;-74
2022/05/24 14:16:54;;;;;;;2.08;1.47;;;;;;;23.35;45.10;99905.94;2279855;77;50260;-75
2022/05/24 14:19:56;;;;;;;1.40;1.30;;;;;;;23.37;45.11;99924.08;2299731;75;50799;-75
2022/05/24 14:22:58;;;;;;;2.62;1.60;;;;;;;23.36;45.14;99949.45;2318367;76;52185;-75
2022/05/24 14:26:01;;;;;;;2.85;1.50;;;;;;;23.36;45.13;99947.56;2338680;75;51515;-73
2022/05/24 14:29:03;;;;;;;1.75;1.65;;;;;;;23.36;45.14;99952.14;2321639;76;51420;-75
2022/05/24 14:32:05;;;;;;;2.27;1.60;;;;;;;23.35;45.14;99954.03;2321903;75;50033;-73
2022/05/24 14:35:08;;;;;;;4.58;1.80;;;;;;;23.34;45.11;99956.95;2321718;76;50940;-73
2022/05/24 14:38:10;;;;;;;2.72;1.47;;;;;;;23.35;45.13;99976.98;2321786;76;51605;-74
2022/05/24 14:41:21;;;;;;;3.02;1.67;;;;;;;23.35;45.18;99974.78;2322609;76;50756;-74
2022/05/24 14:44:27;;;;;;;1.40;1.30;;;;;;;23.34;45.20;99979.89;2342662;75;22488;-74
2022/05/24 14:47:30;;;;;;;2.85;1.70;;;;;;;23.34;45.19;99985.30;2342360;76;50304;-74
2022/05/24 14:50:32;;;;;;;1.50;1.27;;;;;;;23.34;45.20;99998.79;2304735;76;50664;-74
2022/05/24 14:53:37;;;;;;;2.00;1.47;;;;;;;23.34;45.21;100006.89;2302985;77;50733;-74
2022/05/24 14:56:39;;;;;;;1.62;1.45;;;;;;;23.35;45.18;100003.97;2284976;77;50194;-76
2022/05/24 14:59:47;;;;;;;3.80;1.20;;;;;;;23.29;45.19;99990.56;2259087;77;50845;-75
2022/05/24 15:02:45;;;;;;;3.85;1.40;;;;;;;23.37;45.18;100006.42;2259268;77;23035;-73
2022/05/24 15:05:47;;;;;;;1.60;1.32;;;;;;;23.36;45.21;100005.61;2284165;77;49838;-74
2022/05/24 15:15:40;;;;;;;2.55;1.70;;;;;;;23.34;45.33;100021.73;2287274;77;22372;-74
2022/05/24 15:18:42;;;;;;;2.55;1.37;;;;;;;23.34;45.31;100020.39;2321739;76;50443;-74
2022/05/24 15:21:45;;;;;;;13.88;2.30;;;;;;;23.34;45.35;100027.14;2321468;76;50569;-75
2022/05/24 15:24:48;;;;;;;6.25;1.90;;;;;;;23.38;45.39;100037.78;2312368;75;49680;-74
2022/05/24 15:27:50;;;;;;;13.20;2.45;;;;;;;23.40;45.38;100035.16;2318778;76;50353;-73
2022/05/24 15:30:53;;;;;;;7.97;2.50;;;;;;;23.44;45.54;100038.20;2318222;75;50677;-75
2022/05/24 15:33:56;;;;;;;13.58;2.37;;;;;;;23.39;45.37;100042.12;2306337;76;49551;-75
2022/05/24 15:37:00;;;;;;;16.15;2.70;;;;;;;23.36;45.46;100051.50;2306430;76;53714;-75
2022/05/24 15:40:04;;;;;;;42.45;4.28;;;;;;;23.40;45.49;100038.35;2318234;75;22822;-74
2022/05/24 15:43:06;;;;;;;27.55;3.50;;;;;;;23.42;45.49;100053.80;2280922;76;50698;-75
2022/05/24 15:46:08;;;;;;;16.07;2.40;;;;;;;23.41;45.50;100049.47;2317756;76;50230;-76
2022/05/24 15:49:11;;;;;;;23.52;2.65;;;;;;;23.38;45.54;100053.45;2266265;76;49502;-76
2022/05/24 15:52:13;;;;;;;37.88;4.30;;;;;;;23.48;45.25;100048.85;2306818;76;51483;-72
2022/05/24 15:55:16;;;;;;;36.23;4.45;;;;;;;23.46;45.25;100048.25;2318870;76;50330;-74
2022/05/24 15:58:18;;;;;;;19.98;3.80;;;;;;;23.45;45.09;100064.14;2239600;76;50755;-73
2022/05/24 16:01:59;;;;;;;32.30;3.90;;;;;;;23.51;44.97;100055.14;2445814;72;25230;-75
2022/05/24 16:11:44;;;;;;;18.25;3.02;;;;;;;23.46;44.76;100059.05;2307382;76;23484;-76
2022/05/24 16:14:46;;;;;;;19.52;2.58;;;;;;;23.46;44.84;100068.50;2271698;76;49918;-75
2022/05/24 16:17:49;;;;;;;13.65;2.70;;;;;;;23.47;44.85;100059.34;2336135;75;51329;-75
2022/05/24 16:20:52;;;;;;;16.50;2.55;;;;;;;23.57;44.65;100069.05;2334664;76;51381;-75
2022/05/24 16:23:57;;;;;;;14.87;2.70;;;;;;;23.48;44.74;100065.88;2285665;76;49393;-75
2022/05/24 16:26:58;;;;;;;9.93;2.30;;;;;;;23.64;44.43;100079.24;2339528;75;22328;-75
2022/05/24 16:30:00;;;;;;;14.15;2.37;;;;;;;23.71;44.26;100083.18;2263451;75;49947;-76
2022/05/24 16:33:02;;;;;;;16.67;2.67;;;;;;;23.78;44.47;100096.09;2366622;75;49941;-75
2022/05/24 16:36:05;;;;;;;13.30;2.55;;;;;;;23.81;44.38;100102.91;2376862;75;50713;-74
2022/05/24 16:39:07;;;;;;;13.88;2.50;;;;;;;23.72;44.64;100102.94;2279883;75;49993;-75
2022/05/24 16:42:10;;;;;;;14.10;2.98;;;;;;;23.74;44.62;100105.73;2336640;74;50622;-75
2022/05/24 16:45:12;;;;;;;14.75;3.00;;;;;;;23.80;44.77;100120.19;2311248;75;50202;-76
2022/05/24 16:48:14;;;;;;;9.18;2.58;;;;;;;23.82;45.00;100109.45;2305940;75;51892;-75
2022/05/24 16:51:22;;;;;;;14.18;2.72;;;;;;;23.87;44.96;100114.17;2337362;74;50666;-76
2022/05/24 17:01:04;;;;;;;11.75;2.60;;;;;;;23.86;44.87;100119.26;2339027;75;22321;-75
2022/05/24 17:04:06;;;;;;;7.12;2.30;;;;;;;23.89;44.91;100114.73;2271021;76;50130;-74
2022/05/24 17:07:08;;;;;;;10.48;2.33;;;;;;;23.90;44.37;100121.27;2293959;75;50509;-75
2022/05/24 17:10:10;;;;;;;7.37;2.02;;;;;;;23.86;44.51;100125.48;2293778;76;50651;-75
2022/05/24 17:13:13;;;;;;;7.75;2.10;;;;;;;23.87;44.33;100129.84;2323177;75;51008;-74
2022/05/24 17:16:15;;;;;;;16.57;2.77;;;;;;;23.77;44.63;100126.06;2367841;75;49986;-76
2022/05/24 17:19:17;;;;;;;16.15;2.70;;;;;;;23.68;45.02;100126.33;2351260;75;50531;-75
2022/05/24 17:22:19;;;;;;;7.17;2.20;;;;;;;23.64;45.12;100133.27;2303775;75;50641;-76
2022/05/24 17:25:22;;;;;;;61.98;5.75;;;;;;;23.57;45.29;100140.62;2364110;75;50536;-77
2022/05/24 17:28:24;;;;;;;47.75;5.22;;;;;;;23.61;45.27;100142.33;2331184;75;51302;-77
2022/05/24 17:31:26;;;;;;;31.35;4.80;;;;;;;23.66;45.29;100149.22;2306215;75;50547;-76
2022/05/24 17:34:28;;;;;;;54.05;4.78;;;;;;;23.66;45.42;100146.02;2364600;74;51511;-76
2022/05/24 17:37:31;;;;;;;28.23;4.85;;;;;;;23.62;45.61;100148.05;2280265;75;51118;-76
2022/05/24 17:40:35;;;;;;;30.85;4.55;;;;;;;23.59;45.63;100157.97;2331147;75;49793;-76
2022/05/24 17:43:37;;;;;;;30.32;4.65;;;;;;;23.54;45.68;100156.47;2363935;74;50380;-76
2022/05/24 17:46:39;;;;;;;23.83;4.05;;;;;;;23.54;45.77;100160.52;2364406;75;50678;-76
2022/05/24 17:49:41;;;;;;;28.12;4.55;;;;;;;23.54;45.78;100164.58;2319631;75;50360;-76
2022/05/24 17:52:44;;;;;;;26.87;4.65;;;;;;;23.51;46.00;100161.80;2323971;75;51402;-75
2022/05/24 17:55:48;;;;;;;18.95;4.00;;;;;;;23.54;46.09;100168.63;2330908;75;51590;-75
2022/05/24 17:58:50;;;;;;;26.10;4.40;;;;;;;23.57;45.95;100168.16;2324642;75;51536;-73
2022/05/24 18:01:53;;;;;;;22.22;4.05;;;;;;;23.52;46.03;100172.89;2265503;76;52617;-75
2022/05/24 18:04:55;;;;;;;20.95;4.45;;;;;;;23.57;45.92;100179.78;2343952;75;51525;-73
2022/05/24 18:07:57;;;;;;;21.52;4.80;;;;;;;23.58;45.86;100182.80;2371688;75;50333;-74
2022/05/24 18:11:00;;;;;;;27.80;4.80;;;;;;;23.61;45.75;100189.09;2346027;75;50644;-74
2022/05/24 18:14:04;;;;;;;16.87;4.12;;;;;;;23.61;45.76;100193.65;2297676;76;50727;-75
2022/05/24 18:17:07;;;;;;;16.80;4.08;;;;;;;23.57;45.64;100201.39;2331919;75;24690;-75
2022/05/24 18:20:10;;;;;;;19.60;4.35;;;;;;;23.54;45.59;100199.69;2314445;75;49652;-76
2022/05/24 18:23:17;;;;;;;17.27;4.28;;;;;;;23.54;46.14;100201.85;2348719;75;50542;-75
2022/05/24 18:33:08;;;;;;;23.32;5.10;;;;;;;23.56;46.30;100220.01;2330648;76;22418;-77
2022/05/24 18:36:10;;;;;;;28.00;5.08;;;;;;;23.55;46.38;100216.98;2322146;75;50204;-77
2022/05/24 18:39:12;;;;;;;33.65;4.45;;;;;;;23.56;46.38;100217.31;2348072;74;50249;-77
2022/05/24 18:42:18;;;;;;;30.35;4.35;;;;;;;23.60;46.29;100221.19;2320857;75;51095;-78
2022/05/24 18:45:19;;;;;;;;;;;;;;;23.61;46.03;100215.25;2338517;75;50384;-78
2022/05/24 18:48:21;;;;;;;22.42;4.47;;;;;;;23.60;45.92;100217.13;2327488;75;50961;-77
2022/05/24 18:51:24;;;;;;;26.00;4.22;;;;;;;23.60;45.85;100222.53;2296789;76;52483;-79
2022/05/24 18:54:26;;;;;;;20.27;4.03;;;;;;;23.60;45.90;100225.23;2291628;76;51543;-78
2022/05/24 18:57:28;;;;;;;20.85;4.08;;;;;;;23.60;45.95;100229.82;2317098;76;50179;-78
2022/05/24 19:00:30;;;;;;;31.50;4.80;;;;;;;23.60;45.95;100233.34;2291167;76;50003;-76
2022/05/24 19:03:32;;;;;;;17.30;3.70;;;;;;;23.63;46.08;100238.28;2330523;75;51488;-78
2022/05/24 19:06:36;;;;;;;17.80;4.30;;;;;;;23.63;46.07;100242.34;2298481;76;51447;-76
2022/05/24 19:09:39;;;;;;;18.07;4.12;;;;;;;23.62;45.92;100247.45;2330575;76;50274;-77
2022/05/24 19:12:52;;;;;;;13.53;3.85;;;;;;;23.62;45.94;100248.80;2330645;76;50646;-76
2022/05/24 19:15:54;;;;;;;16.60;3.67;;;;;;;23.63;45.80;100259.89;2330348;76;22353;-76
2022/05/24 19:18:58;;;;;;;10.72;3.60;;;;;;;23.63;45.77;100265.30;2339838;75;51532;-77
2022/05/24 19:22:06;;;;;;;9.33;3.47;;;;;;;23.63;45.73;100265.30;2336134;76;51454;-80
2022/05/24 19:25:14;;;;;;;9.40;3.08;;;;;;;23.64;45.67;100268.84;2310054;76;49372;-77
2022/05/24 19:28:20;;;;;;;16.50;3.83;;;;;;;23.64;45.66;100269.66;2316080;74;22586;-79
2022/05/24 19:31:22;;;;;;;9.85;3.47;;;;;;;23.64;45.66;100274.25;2399276;73;51821;-78
2022/05/24 19:34:28;;;;;;;12.95;4.58;;;;;;;23.64;45.58;100271.02;2325426;74;50138;-78
2022/05/24 19:37:35;;;;;;;10.03;3.40;;;;;;;23.65;45.45;100280.76;2380280;74;23316;-77
2022/05/24 19:43:59;;;;;;;22.62;4.37;;;;;;;23.66;45.48;100286.98;2355438;74;22314;-77
2022/05/24 19:47:01;;;;;;;10.60;4.00;;;;;;;23.67;45.44;100297.56;2338763;75;52202;-79
2022/05/24 19:50:08;;;;;;;13.80;3.65;;;;;;;23.67;45.41;100298.92;2332058;74;49300;-78
2022/05/24 19:53:12;;;;;;;10.78;3.75;;;;;;;23.67;45.34;100300.27;2351147;75;50680;-76
2022/05/24 19:56:18;;;;;;;12.37;3.50;;;;;;;23.67;45.29;100312.95;2369615;74;21791;-75
2022/05/24 19:59:20;;;;;;;15.23;4.42;;;;;;;23.67;45.20;100321.87;2314293;76;50312;-78
2022/05/24 20:02:27;;;;;;;16.50;4.08;;;;;;;23.67;45.05;100317.83;2336685;75;50689;-76
2022/05/24 20:05:29;;;;;;;9.23;3.62;;;;;;;23.66;45.05;100326.99;2296693;76;50858;-78
2022/05/24 20:08:33;;;;;;;13.28;4.25;;;;;;;23.67;44.89;100338.09;2297004;76;50624;-76
2022/05/24 20:11:39;;;;;;;10.82;3.50;;;;;;;23.67;44.85;100342.14;2332010;76;51317;-78
2022/05/24 20:14:44;;;;;;;9.38;3.72;;;;;;;23.67;44.78;100346.19;2332017;76;21776;-76
2022/05/24 20:17:57;;;;;;;8.83;3.95;;;;;;;23.68;44.71;100345.13;2332180;74;23004;-77
2022/05/24 20:20:59;;;;;;;9.20;4.03;;;;;;;23.67;44.64;100348.07;2330719;75;50165;-77
2022/05/24 20:24:01;;;;;;;11.88;4.72;;;;;;;23.68;44.71;100354.58;2271462;76;50718;-75
2022/05/24 20:27:08;;;;;;;14.30;4.95;;;;;;;23.66;44.66;100347.25;2294533;76;50168;-77
2022/05/24 20:30:10;;;;;;;8.55;4.30;;;;;;;23.67;44.57;100347.55;2328174;76;22238;-79
2022/05/24 20:33:13;;;;;;;18.82;4.78;;;;;;;23.68;44.67;100348.36;2296622;76;51523;-78
2022/05/24 20:36:15;;;;;;;11.22;4.62;;;;;;;23.68;45.02;100344.31;2270608;76;51399;-79
2022/05/24 20:39:17;;;;;;;15.68;4.45;;;;;;;23.69;44.81;100357.61;2245263;76;51065;-76
2022/05/24 20:42:19;;;;;;;13.32;4.37;;;;;;;23.71;44.62;100366.81;2321966;76;49916;-77
2022/05/24 20:45:22;;;;;;;11.00;5.03;;;;;;;23.72;44.50;100360.91;2327581;75;51475;-77
2022/05/24 20:48:24;;;;;;;9.63;4.40;;;;;;;23.70;44.50;100370.05;2296088;76;51529;-79